E3865 / 9Y-JMB 7700 Squawk Report (19th of May, 2019)

Time Lat Lon Altitude Heading Speed Vertical Rate
2019-05-19 11:39:04 GMT 13.905258 100.596489 0 208 23 0
2019-05-19 11:39:00 GMT 13.905607 100.596832 0 208 23 0
2019-05-19 11:37:58 GMT 13.911263 100.603699 0 208 59 0
2019-05-19 11:37:48 GMT 13.913847 100.605072 0 208 67 0
2019-05-19 11:37:39 GMT 13.916245 100.606613 0 208 78 0
2019-05-19 11:37:32 GMT 13.919503 100.608337 0 208 120 0
2019-05-19 11:37:28 GMT 13.920708 100.609016 0 208 130 0
2019-05-19 11:37:20 GMT 13.925674 100.611748 200 209 147 0
2019-05-19 11:37:17 GMT 13.927405 100.612793 225 209 151 -640
2019-05-19 11:37:11 GMT 13.931671 100.615158 325 209 150 -704
2019-05-19 11:37:07 GMT 13.934062 100.616554 375 209 151 -576
2019-05-19 11:37:00 GMT 13.938392 100.618958 450 209 152 -640
2019-05-19 11:36:56 GMT 13.940766 100.620163 500 209 152 -832
2019-05-19 11:36:48 GMT 13.945421 100.622719 600 209 153 -832
2019-05-19 11:36:44 GMT 13.947281 100.623924 650 210 155 -832
2019-05-19 11:36:38 GMT 13.952271 100.626671 750 210 159 -832
2019-05-19 11:36:34 GMT 13.954147 100.627708 800 209 160 -768
2019-05-19 11:36:27 GMT 13.959294 100.630623 900 209 159 -704
2019-05-19 11:36:24 GMT 13.961197 100.631638 925 209 159 -768
2019-05-19 11:36:16 GMT 13.966695 100.634766 1,050 210 160 -768
2019-05-19 11:36:13 GMT 13.967906 100.635437 1,175 209 163 -832
2019-05-19 11:36:05 GMT 13.973557 100.638885 1,200 210 163 -768
2019-05-19 11:36:02 GMT 13.975261 100.639732 1,225 209 162 -832
2019-05-19 11:35:54 GMT 13.982337 100.643822 1,375 209 163 -832
2019-05-19 11:35:41 GMT 13.989506 100.647629 1,500 208 165 -768
2019-05-19 11:35:30 GMT 13.996908 100.651917 1,675 209 166 -704
2019-05-19 11:35:19 GMT 14.004636 100.656403 1,825 209 171 -768
2019-05-19 11:35:10 GMT 14.010455 100.659485 1,950 208 178 -768
2019-05-19 11:35:07 GMT 14.012192 100.660339 1,950 208 178 -768
2019-05-19 11:35:00 GMT 14.018043 100.663582 2,100 209 182 -896
2019-05-19 11:34:57 GMT 14.020929 100.665314 2,150 208 186 -896
2019-05-19 11:34:48 GMT 14.027446 100.668930 2,275 211 190 -832
2019-05-19 11:34:37 GMT 14.036058 100.674034 2,475 209 190 -960
2019-05-19 11:34:34 GMT 14.037920 100.675095 2,500 207 191 -1024
2019-05-19 11:34:28 GMT 14.043274 100.677666 2,625 205 191 -896
2019-05-19 11:34:17 GMT 14.051651 100.682121 2,750 214 193 -832
2019-05-19 11:34:14 GMT 14.060778 100.690369 3,175 199 189 -1024
2019-05-19 11:34:04 GMT 14.060778 100.690369 3,000 220 192 -1408
2019-05-19 11:33:58 GMT 14.065567 100.693298 3,150 193 188 -768
2019-05-19 11:33:53 GMT 14.069687 100.694336 3,225 187 187 -320
2019-05-19 11:33:48 GMT 14.072974 100.694321 3,225 174 187 -64
2019-05-19 11:33:43 GMT 14.078095 100.692924 3,250 155 191 0
2019-05-19 11:33:37 GMT 14.081726 100.690712 3,250 145 195 -128
2019-05-19 11:33:34 GMT 14.086335 100.686615 3,250 132 201 -64
2019-05-19 11:33:31 GMT 14.088243 100.684349 3,250 129 203 -64
2019-05-19 11:33:24 GMT 14.090618 100.681267 3,275 128 204 0
2019-05-19 11:33:20 GMT 14.092852 100.678375 3,275 129 203 0
2019-05-19 11:33:15 GMT 14.095963 100.674400 3,250 129 202 128
2019-05-19 11:33:11 GMT 14.097833 100.672157 3,250 129 201 0
2019-05-19 11:33:05 GMT 14.101776 100.667206 3,250 129 201 0
2019-05-19 11:32:58 GMT 14.105759 100.662376 3,250 129 201 0
2019-05-19 11:32:55 GMT 14.107609 100.659966 3,250 129 201 0
2019-05-19 11:32:50 GMT 14.110728 100.656403 3,250 129 200 0
2019-05-19 11:32:46 GMT 14.113449 100.652946 3,250 129 200 0
2019-05-19 11:32:43 GMT 14.115189 100.650726 3,250 129 200 -64
2019-05-19 11:32:40 GMT 14.117059 100.648308 3,250 130 200 0
2019-05-19 11:32:35 GMT 14.119294 100.645752 3,250 130 200 0
2019-05-19 11:32:31 GMT 14.122375 100.641968 3,250 130 200 0
2019-05-19 11:32:27 GMT 14.127045 100.636284 3,250 129 199 0
2019-05-19 11:32:22 GMT 14.127045 100.636284 3,250 129 199 0
2019-05-19 11:32:18 GMT 14.129929 100.632874 3,250 129 199 0
2019-05-19 11:32:14 GMT 14.132189 100.629944 3,250 129 199 0
2019-05-19 11:32:11 GMT 14.133725 100.628067 3,250 129 198 0
2019-05-19 11:32:08 GMT 14.135971 100.625153 3,250 129 198 0
2019-05-19 11:32:02 GMT 14.139032 100.621368 3,250 129 197 0
2019-05-19 11:31:56 GMT 14.142291 100.617416 3,225 128 196 0
2019-05-19 11:31:51 GMT 14.145721 100.612938 3,225 128 195 0
2019-05-19 11:31:47 GMT 14.148156 100.609711 3,225 127 195 0
2019-05-19 11:31:42 GMT 14.150711 100.606255 3,225 127 195 0
2019-05-19 11:31:35 GMT 14.154161 100.601807 3,225 127 196 0
2019-05-19 11:31:31 GMT 14.156536 100.598534 3,225 127 199 0
2019-05-19 11:31:25 GMT 14.160167 100.593903 3,200 127 202 0
2019-05-19 11:31:19 GMT 14.164124 100.588409 3,200 126 207 0
2019-05-19 11:31:14 GMT 14.166172 100.585472 3,225 126 215 -64
2019-05-19 11:31:10 GMT 14.169430 100.581039 3,225 126 222 -64
2019-05-19 11:31:04 GMT 14.173015 100.576218 3,225 126 231 0
2019-05-19 11:30:58 GMT 14.176987 100.570885 3,225 127 243 0
2019-05-19 11:30:55 GMT 14.178881 100.568321 3,225 129 257 -320
2019-05-19 11:30:51 GMT 14.181427 100.564873 3,250 128 250 -512
2019-05-19 11:30:48 GMT 14.184036 100.561462 3,275 128 253 -256
2019-05-19 11:30:42 GMT 14.188660 100.555779 3,325 129 260 -704
2019-05-19 11:30:37 GMT 14.192780 100.550804 3,375 130 263 -768
2019-05-19 11:30:31 GMT 14.197595 100.545143 3,475 131 268 -832
2019-05-19 11:30:25 GMT 14.201552 100.540657 3,575 135 275 -896
2019-05-19 11:30:20 GMT 14.206346 100.535553 3,625 135 274 -896
2019-05-19 11:30:15 GMT 14.211141 100.530731 3,700 134 277 -832
2019-05-19 11:30:09 GMT 14.215942 100.525421 3,775 129 282 -768
2019-05-19 11:30:04 GMT 14.220079 100.519745 3,875 121 288 -832
2019-05-19 11:29:59 GMT 14.223679 100.513062 3,925 113 293 -1024
2019-05-19 11:29:54 GMT 14.225712 100.505676 4,050 100 298 -1216
2019-05-19 11:29:51 GMT 14.226242 100.502739 4,075 95 300 -1216
2019-05-19 11:29:47 GMT 14.226410 100.497581 4,150 86 304 -1152
2019-05-19 11:29:43 GMT 14.225712 100.490013 4,250 82 307 -1024
2019-05-19 11:29:37 GMT 14.224548 100.482162 4,350 80 312 -1024
2019-05-19 11:29:32 GMT 14.223338 100.474068 4,500 80 318 -896
2019-05-19 11:29:26 GMT 14.221939 100.465660 4,525 80 319 -832
2019-05-19 11:29:20 GMT 14.220245 100.457420 4,725 66 330 -1152
2019-05-19 11:29:15 GMT 14.218031 100.450409 4,700 67 329 -1088
2019-05-19 11:29:09 GMT 14.213699 100.441795 4,900 56 333 -1280
2019-05-19 11:29:04 GMT 14.209093 100.435806 4,950 48 337 -1600
2019-05-19 11:28:58 GMT 14.202026 100.429100 5,125 37 339 -1792
2019-05-19 11:28:54 GMT 14.195872 100.424820 5,250 32 340 -1472
2019-05-19 11:28:48 GMT 14.187958 100.419807 5,425 30 343 -1664
2019-05-19 11:28:44 GMT 14.180743 100.415520 5,575 30 343 -1792
2019-05-19 11:28:37 GMT 14.172689 100.410751 5,750 30 344 -1728
2019-05-19 11:28:32 GMT 14.166504 100.406944 5,900 30 345 -1792
2019-05-19 11:28:27 GMT 14.157932 100.401787 6,100 30 344 -1984
2019-05-19 11:28:23 GMT 14.152267 100.398369 6,250 30 344 -1984
2019-05-19 11:28:16 GMT 14.142477 100.392731 6,500 30 344 -2048
2019-05-19 11:28:11 GMT 14.135959 100.388779 6,675 30 343 -1984
2019-05-19 11:28:05 GMT 14.127394 100.383766 6,900 29 342 -2432
2019-05-19 11:28:01 GMT 14.122925 100.381210 7,050 29 340 -2880
2019-05-19 11:27:54 GMT 14.111938 100.374657 7,400 29 335 -3328
2019-05-19 11:27:51 GMT 14.108505 100.372612 7,650 29 331 -3264
2019-05-19 11:27:43 GMT 14.097833 100.366417 8,100 29 324 -3264
2019-05-19 11:27:40 GMT 14.094589 100.364372 8,250 29 321 -3328
2019-05-19 11:27:32 GMT 14.083588 100.358032 8,725 29 313 -3328
2019-05-19 11:27:29 GMT 14.080856 100.356506 8,850 29 310 -3328
2019-05-19 11:27:22 GMT 14.070877 100.350639 9,275 29 302 -2688
2019-05-19 11:27:19 GMT 14.067444 100.348602 9,375 29 301 -2432
2019-05-19 11:27:11 GMT 14.057845 100.342903 9,575 29 302 -768
2019-05-19 11:27:07 GMT 14.054764 100.341026 9,600 29 303 -512
2019-05-19 11:27:00 GMT 14.044112 100.334862 9,675 29 308 -704
2019-05-19 11:26:56 GMT 14.041039 100.333122 9,700 28 309 -832
2019-05-19 11:26:48 GMT 14.026096 100.327293 9,875 13 313 -832
2019-05-19 11:26:45 GMT 14.026096 100.327293 9,900 11 313 -768
2019-05-19 11:26:40 GMT 14.017868 100.326103 9,900 358 313 1024
2019-05-19 11:26:37 GMT 14.013565 100.326103 9,875 358 313 1024
2019-05-19 11:26:34 GMT 14.010129 100.326088 9,850 357 313 1152
2019-05-19 11:26:29 GMT 14.001526 100.327148 9,675 351 314 2240
2019-05-19 11:26:26 GMT 13.993652 100.329041 9,525 347 314 2688
2019-05-19 11:26:19 GMT 13.986603 100.331787 9,200 336 315 2560
2019-05-19 11:26:15 GMT 13.982162 100.334015 9,050 331 314 2368
2019-05-19 11:26:12 GMT 13.979218 100.335869 8,975 327 314 2368
2019-05-19 11:26:08 GMT 13.974097 100.339676 8,775 320 312 2496
2019-05-19 11:26:05 GMT 13.969768 100.343773 8,625 314 312 2624
2019-05-19 11:26:02 GMT 13.967720 100.346039 8,550 311 311 2624
2019-05-19 11:25:57 GMT 13.963760 100.351486 8,250 301 311 2496
2019-05-19 11:25:53 GMT 13.961014 100.356506 8,175 298 310 2496
2019-05-19 11:25:47 GMT 13.956390 100.366119 7,925 295 311 1664
2019-05-19 11:25:42 GMT 13.953987 100.371574 7,825 295 309 1088
2019-05-19 11:25:36 GMT 13.949890 100.380852 7,725 295 308 896
2019-05-19 11:25:32 GMT 13.947981 100.385162 7,625 295 307 1280
2019-05-19 11:25:29 GMT 13.946445 100.388779 7,600 295 306 1536
2019-05-19 11:25:25 GMT 13.943527 100.395294 7,400 295 304 2496
2019-05-19 11:25:21 GMT 13.941284 100.400452 7,300 295 304 2496
2019-05-19 11:25:18 GMT 13.940094 100.403198 7,175 295 303 2560
2019-05-19 11:25:14 GMT 13.937321 100.409355 6,950 294 302 2368
2019-05-19 11:25:10 GMT 13.934947 100.415184 6,800 294 300 2176
2019-05-19 11:25:07 GMT 13.933731 100.417786 6,700 294 300 2240
2019-05-19 11:25:00 GMT 13.929977 100.426880 6,350 294 297 2624
2019-05-19 11:24:56 GMT 13.927917 100.431847 6,250 294 296 2624
2019-05-19 11:24:51 GMT 13.925171 100.438004 6,025 294 296 2752
2019-05-19 11:24:48 GMT 13.923262 100.442505 5,875 294 295 2944
2019-05-19 11:24:45 GMT 13.921738 100.446434 5,700 294 296 3264
2019-05-19 11:24:41 GMT 13.917257 100.456909 5,350 294 297 3328
2019-05-19 11:24:37 GMT 13.917257 100.456909 5,250 294 297 3264
2019-05-19 11:24:34 GMT 13.915907 100.460526 5,100 293 298 3072
2019-05-19 11:24:31 GMT 13.913498 100.465996 4,900 294 298 2944
2019-05-19 11:24:27 GMT 13.911438 100.471153 4,700 294 298 2752
2019-05-19 11:24:19 GMT 13.907639 100.479912 4,425 294 297 2432
2019-05-19 11:24:16 GMT 13.905572 100.485054 4,275 294 295 2432
2019-05-19 11:24:07 GMT 13.900955 100.495682 3,950 295 291 1984
2019-05-19 11:24:03 GMT 13.898869 100.500183 3,850 295 289 1856
2019-05-19 11:23:59 GMT 13.895782 100.507050 3,675 296 285 1536
2019-05-19 11:23:56 GMT 13.894592 100.509605 3,625 296 283 1472
2019-05-19 11:23:53 GMT 13.893036 100.512871 3,550 297 280 1792
2019-05-19 11:23:46 GMT 13.888412 100.521965 3,250 298 275 2624
2019-05-19 11:23:43 GMT 13.886536 100.525757 3,100 299 275 2496
2019-05-19 11:23:36 GMT 13.882762 100.532272 2,925 301 272 1408
2019-05-19 11:23:32 GMT 13.879303 100.538116 2,800 303 265 1664
2019-05-19 11:23:24 GMT 13.875046 100.545311 2,550 302 259 2752
2019-05-19 11:23:21 GMT 13.872620 100.549240 2,375 300 258 2880
2019-05-19 11:23:14 GMT 13.869003 100.557152 2,125 290 256 1344
2019-05-19 11:23:10 GMT 13.867813 100.561981 2,050 279 249 1088
2019-05-19 11:23:05 GMT 13.867819 100.567978 1,975 264 241 768
2019-05-19 11:22:54 GMT 13.872437 100.579315 1,850 232 219 256
2019-05-19 11:22:42 GMT 13.881042 100.585991 1,725 211 191 1280
2019-05-19 11:22:31 GMT 13.888779 100.590630 1,325 212 183 2688
2019-05-19 11:22:21 GMT 13.896309 100.595779 900 213 180 1856
2019-05-19 11:22:09 GMT 13.903710 100.600410 550 212 172 2112
2019-05-19 11:21:59 GMT 13.911266 100.604897 375 211 171 2048
2019-05-19 11:21:53 GMT 13.915215 100.607132 0 208 150
2019-05-19 11:21:39 GMT 13.921912 100.610901 0 208 92
2019-05-19 11:20:15 GMT 13.925171 100.612793 0 28 6
2019-05-19 11:20:01 GMT 13.925683 100.612793 0 28 12
2019-05-19 11:19:44 GMT 13.926207 100.611938 0 28 12
2019-05-19 11:19:32 GMT 13.926032 100.611420 0 28 15
2019-05-19 11:19:21 GMT 13.925171 100.610909 0 28 23
2019-05-19 11:19:08 GMT 13.924141 100.610222 0 28 25
2019-05-19 11:19:00 GMT 13.923286 100.609711 0 28 25
2019-05-19 11:18:48 GMT 13.922081 100.609192 0 28 25
2019-05-19 11:18:36 GMT 13.920879 100.608505 0 28 25
2019-05-19 11:18:24 GMT 13.919849 100.607819 0 28 25
2019-05-19 11:17:54 GMT 13.916931 100.606270 0 28 21
2019-05-19 11:17:44 GMT 13.916070 100.605759 0 28 19
2019-05-19 11:17:31 GMT 13.915383 100.605408 0 28 17
2019-05-19 11:17:22 GMT 13.914697 100.605072 0 28 15
2019-05-19 11:17:09 GMT 13.914010 100.604553 0 28 13
2019-05-19 11:17:01 GMT 13.913670 100.604385 0 28 12
2019-05-19 11:16:58 GMT 13.913498 100.604385 0 28 11
2019-05-19 11:16:44 GMT 13.912811 100.604034 0 28 12
2019-05-19 11:16:31 GMT 13.912296 100.603699 0 28 13
2019-05-19 11:16:23 GMT 13.911781 100.603355 0 28 14
2019-05-19 11:16:14 GMT 13.911438 100.603180 0 28 15
2019-05-19 11:16:03 GMT 13.910751 100.602844 0 28 15
2019-05-19 11:15:53 GMT 13.910065 100.602493 0 28 16

Making use of Plane Finder data

You are free to use the raw flight data, aircraft information and images provided in this report for your own purposes provided the data is correctly attributed to Plane Finder. We ask that you please credit Plane Finder and link to planefinder.net in close proximity to the content.

Optionally one of the following logos (no smaller then 150x24px) can be used and must link to planefinder.net

Embedding the Plane Finder map

You are welcome to embed the Plane Finder playback map on your website to offer visitors a more interactive experience. We suggest using the following HTML code:

<iframe src="//planefinder.net/data/report/E3865-9Y-JMB-7700-squawk-2019-05-19/map" width="800" height="600" seamless="seamless"></iframe>

Where our data comes from

Plane Finder has a global network of data feeds and antenna radars that receive data broadcast directly from aircraft. The primary technologies used are ADS-B and MLAT. We also show feeds from the FAA and a FLARM glider feed.

Click here to find out more about the Plane Finder network.

How we collect our data